createdAt,value
2023-05-12T00:00:59.902Z,6.90
2023-05-12T00:03:27.718Z,5.88
2023-05-12T00:05:55.035Z,6.28
2023-05-12T00:08:24.987Z,5.95
2023-05-12T00:10:55.082Z,5.65
2023-05-12T00:13:25.915Z,6.55
2023-05-12T00:15:56.976Z,5.22
2023-05-12T00:18:24.822Z,6.32
2023-05-12T00:20:54.408Z,5.25
2023-05-12T00:23:22.898Z,5.95
2023-05-12T00:25:51.084Z,5.90
2023-05-12T00:28:24.076Z,5.40
2023-05-12T00:30:57.284Z,5.65
2023-05-12T00:33:25.433Z,6.20
2023-05-12T00:35:52.588Z,4.93
2023-05-12T00:38:20.314Z,6.38
2023-05-12T00:40:47.727Z,6.22
2023-05-12T00:43:14.819Z,5.72
2023-05-12T00:45:44.037Z,6.57
2023-05-12T00:48:12.189Z,5.78
2023-05-12T00:50:39.493Z,6.03
2023-05-12T00:53:07.384Z,6.22
2023-05-12T00:55:34.691Z,6.00
2023-05-12T00:58:02.563Z,5.97
2023-05-12T01:00:29.986Z,5.63
2023-05-12T01:02:58.835Z,5.93
2023-05-12T01:05:44.723Z,6.43
2023-05-12T01:08:12.143Z,6.50
2023-05-12T01:10:45.149Z,6.25
2023-05-12T01:13:12.391Z,6.10
2023-05-12T01:15:49.111Z,6.60
2023-05-12T01:18:19.696Z,7.35
2023-05-12T01:20:48.560Z,6.22
2023-05-12T01:23:21.666Z,6.05
2023-05-12T01:25:50.680Z,7.13
2023-05-12T01:28:22.013Z,7.22
2023-05-12T01:30:49.815Z,7.28
2023-05-12T01:33:17.180Z,6.97
2023-05-12T01:35:44.560Z,5.82
2023-05-12T01:38:12.550Z,6.32
2023-05-12T01:40:39.891Z,6.53
2023-05-12T01:43:16.031Z,6.68
2023-05-12T01:45:43.750Z,4.80
2023-05-12T01:48:11.187Z,6.47
2023-05-12T01:50:38.715Z,6.32
2023-05-12T01:53:06.027Z,6.88
2023-05-12T01:55:36.360Z,6.03
2023-05-12T01:58:03.907Z,7.28
2023-05-12T02:00:31.267Z,6.85
2023-05-12T02:02:58.913Z,6.88
2023-05-12T02:05:26.617Z,7.00
2023-05-12T02:07:57.543Z,7.60
2023-05-12T02:10:25.305Z,6.78
2023-05-12T02:12:52.884Z,6.28
2023-05-12T02:15:20.585Z,7.22
2023-05-12T02:17:50.455Z,6.95
2023-05-12T02:20:21.357Z,6.80
2023-05-12T02:22:49.327Z,7.80
2023-05-12T02:25:20.731Z,6.68
2023-05-12T02:27:53.202Z,8.30
2023-05-12T02:30:21.199Z,7.97
2023-05-12T02:32:48.897Z,8.32
2023-05-12T02:35:17.701Z,6.63
2023-05-12T02:37:45.021Z,7.25
2023-05-12T02:40:14.906Z,7.90
2023-05-12T02:42:43.847Z,8.05
2023-05-12T02:45:11.798Z,7.72
2023-05-12T02:47:41.427Z,9.43
2023-05-12T02:50:09.737Z,8.27
2023-05-12T02:52:37.563Z,10.20
2023-05-12T02:55:06.510Z,9.68
2023-05-12T02:57:34.490Z,8.95
2023-05-12T03:00:02.333Z,8.48
2023-05-12T03:02:36.525Z,6.78
2023-05-12T03:05:05.123Z,9.20
2023-05-12T03:07:33.107Z,8.30
2023-05-12T03:10:02.430Z,9.48
2023-05-12T03:12:31.498Z,11.35
2023-05-12T03:14:59.138Z,9.85
2023-05-12T03:17:26.957Z,10.05
2023-05-12T03:20:00.885Z,10.98
2023-05-12T03:22:28.192Z,8.63
2023-05-12T03:24:55.676Z,10.40
2023-05-12T03:27:23.003Z,11.02
2023-05-12T03:29:50.202Z,10.07
2023-05-12T03:32:17.370Z,9.57
2023-05-12T03:34:44.560Z,8.65
2023-05-12T03:37:11.986Z,9.43
2023-05-12T03:39:39.693Z,12.35
2023-05-12T03:42:10.150Z,16.67
2023-05-12T03:44:37.548Z,15.45
2023-05-12T03:47:05.422Z,11.88
2023-05-12T03:49:33.111Z,11.77
2023-05-12T03:52:01.330Z,11.73
2023-05-12T03:54:29.709Z,11.27
2023-05-12T03:56:57.180Z,10.35
2023-05-12T03:59:25.566Z,8.48
2023-05-12T04:01:56.280Z,8.18
2023-05-12T04:04:23.947Z,8.15
2023-05-12T04:06:51.432Z,9.05
2023-05-12T04:09:18.709Z,7.82
2023-05-12T04:11:48.354Z,8.43
2023-05-12T04:14:15.843Z,7.22
2023-05-12T04:16:43.483Z,7.88
2023-05-12T04:19:11.199Z,6.47
2023-05-12T04:21:38.569Z,6.43
2023-05-12T04:24:07.287Z,6.10
2023-05-12T04:26:34.803Z,6.00
2023-05-12T04:29:02.337Z,5.80
2023-05-12T04:31:30.279Z,5.63
2023-05-12T04:33:58.006Z,5.50
2023-05-12T04:36:25.558Z,6.53
2023-05-12T04:38:54.194Z,4.88
2023-05-12T04:41:21.653Z,4.75
2023-05-12T04:46:22.578Z,5.30
2023-05-12T04:48:52.417Z,5.28
2023-05-12T04:51:19.848Z,5.05
2023-05-12T04:53:47.504Z,5.32
2023-05-12T04:56:18.540Z,5.18
2023-05-12T04:58:46.300Z,5.28
2023-05-12T05:01:14.536Z,5.15
2023-05-12T05:03:42.374Z,6.25
2023-05-12T05:06:12.457Z,5.38
2023-05-12T05:08:40.860Z,5.50
2023-05-12T05:11:08.935Z,5.32
2023-05-12T05:13:36.468Z,5.00
2023-05-12T05:16:04.843Z,5.18
2023-05-12T05:18:35.689Z,4.72
2023-05-12T05:21:06.339Z,5.32
2023-05-12T05:23:33.935Z,4.90
2023-05-12T05:26:01.514Z,4.93
2023-05-12T05:28:29.169Z,5.60
2023-05-12T05:30:57.011Z,4.95
2023-05-12T05:33:24.513Z,4.60
2023-05-12T05:35:54.713Z,4.47
2023-05-12T05:38:22.032Z,4.57
2023-05-12T05:40:53.476Z,4.68
2023-05-12T05:43:54.032Z,3.50
2023-05-12T05:46:27.846Z,4.00
2023-05-12T05:49:03.200Z,4.07
2023-05-12T05:52:06.379Z,4.05
2023-05-12T05:54:36.476Z,3.47
2023-05-12T05:57:07.077Z,4.07
2023-05-12T05:59:48.437Z,4.38
2023-05-12T06:02:24.033Z,3.72
2023-05-12T06:05:02.176Z,4.07
2023-05-12T06:07:34.692Z,3.88
2023-05-12T06:10:06.474Z,3.78
2023-05-12T06:12:41.052Z,3.40
2023-05-12T06:18:56.784Z,3.42
2023-05-12T06:21:24.851Z,3.03
2023-05-12T06:23:52.499Z,3.15
2023-05-12T06:26:19.946Z,2.90
2023-05-12T06:28:50.373Z,3.00
2023-05-12T06:31:21.040Z,3.03
2023-05-12T06:33:51.741Z,2.92
2023-05-12T06:36:21.819Z,2.75
2023-05-12T06:38:49.487Z,2.35
2023-05-12T06:41:19.858Z,2.83
2023-05-12T06:43:47.625Z,2.67
2023-05-12T06:46:15.246Z,2.38
2023-05-12T06:48:48.449Z,2.60
2023-05-12T06:51:17.336Z,2.35
2023-05-12T06:53:45.324Z,2.28
2023-05-12T06:56:17.322Z,2.65
2023-05-12T06:58:53.063Z,2.22
2023-05-12T07:01:36.532Z,2.33
2023-05-12T07:04:13.063Z,2.13
2023-05-12T07:06:48.342Z,2.00
2023-05-12T07:09:51.069Z,1.60
2023-05-12T07:12:23.848Z,1.95
2023-05-12T07:18:04.315Z,1.50
2023-05-12T07:20:37.634Z,1.60
2023-05-12T07:23:18.533Z,1.20
2023-05-12T07:25:50.514Z,1.30
2023-05-12T07:28:21.103Z,1.27
2023-05-12T07:30:54.251Z,1.35
2023-05-12T07:37:03.072Z,1.08
2023-05-12T07:39:32.809Z,1.00
2023-05-12T07:42:01.148Z,1.20
2023-05-12T07:44:33.831Z,0.93
2023-05-12T07:47:06.085Z,1.00
2023-05-12T07:49:51.470Z,1.02
2023-05-12T07:52:19.842Z,1.05
2023-05-12T07:54:49.870Z,0.90
2023-05-12T07:57:46.609Z,1.17
2023-05-12T08:00:59.825Z,0.90
2023-05-12T08:10:38.016Z,1.00
2023-05-12T08:13:53.314Z,1.58
2023-05-12T08:16:49.587Z,1.10
2023-05-12T08:20:12.016Z,1.10
2023-05-12T08:22:47.304Z,1.30
2023-05-12T08:28:33.215Z,1.40
2023-05-12T08:31:21.919Z,1.30
2023-05-12T08:34:30.199Z,1.23
2023-05-12T08:37:43.457Z,1.40
2023-05-12T08:40:56.849Z,1.10
2023-05-12T08:43:56.326Z,0.88
2023-05-12T08:46:29.610Z,1.33
2023-05-12T08:49:15.172Z,1.08
2023-05-12T08:51:57.732Z,1.20
2023-05-12T08:54:48.505Z,1.13
2023-05-12T09:00:22.052Z,0.90
2023-05-12T09:03:00.239Z,1.27
2023-05-12T09:05:31.328Z,0.90
2023-05-12T09:08:07.287Z,0.82
2023-05-12T09:10:35.857Z,1.33
2023-05-12T09:13:26.779Z,1.27
2023-05-12T09:16:02.896Z,1.13
2023-05-12T09:21:16.862Z,1.23
2023-05-12T09:24:04.924Z,2.40
2023-05-12T09:27:27.080Z,0.82
2023-05-12T09:29:59.519Z,0.90
2023-05-12T09:32:37.767Z,1.10
2023-05-12T09:37:43.263Z,1.13
2023-05-12T09:40:13.798Z,1.60
2023-05-12T09:42:46.793Z,1.10
2023-05-12T09:45:15.458Z,1.05
2023-05-12T09:47:49.412Z,1.30
2023-05-12T09:50:19.759Z,1.20
2023-05-12T09:52:47.421Z,1.48
2023-05-12T09:55:17.687Z,2.95
2023-05-12T10:03:04.821Z,1.25
2023-05-12T10:05:40.850Z,2.13
2023-05-12T10:08:15.857Z,2.33
2023-05-12T10:10:50.803Z,2.33
2023-05-12T10:13:20.510Z,2.22
2023-05-12T10:15:53.553Z,2.55
2023-05-12T10:18:30.353Z,2.75
2023-05-12T10:20:59.621Z,2.38
2023-05-12T10:23:31.569Z,2.53
2023-05-12T10:26:02.931Z,2.55
2023-05-12T10:28:36.927Z,1.90
2023-05-12T10:31:08.528Z,2.17
2023-05-12T10:33:57.022Z,1.70
2023-05-12T10:36:27.219Z,2.88
2023-05-12T10:38:55.240Z,2.67
2023-05-12T10:41:36.827Z,2.40
2023-05-12T10:44:07.740Z,2.40
2023-05-12T10:49:16.028Z,1.83
2023-05-12T10:51:43.755Z,2.38
2023-05-12T10:54:13.531Z,2.20
2023-05-12T10:56:48.633Z,2.20
2023-05-12T10:59:25.255Z,2.00
2023-05-12T11:02:09.116Z,1.90
2023-05-12T11:05:03.111Z,2.33
2023-05-12T11:07:35.529Z,2.40
2023-05-12T11:10:05.864Z,2.20
2023-05-12T11:12:36.796Z,2.47
2023-05-12T11:15:10.329Z,2.70
2023-05-12T11:17:43.117Z,1.80
2023-05-12T11:20:18.046Z,2.15
2023-05-12T11:22:48.211Z,1.92
2023-05-12T11:25:19.423Z,1.73
2023-05-12T11:27:57.666Z,1.50
2023-05-12T11:30:26.991Z,1.92
2023-05-12T11:33:07.522Z,1.90
2023-05-12T11:35:39.586Z,1.70
2023-05-12T11:38:16.925Z,1.80
2023-05-12T11:40:44.938Z,1.83
2023-05-12T11:43:21.456Z,1.52
2023-05-12T11:45:49.149Z,2.17
2023-05-12T11:48:17.441Z,1.80
2023-05-12T11:50:50.217Z,2.42
2023-05-12T11:53:19.619Z,1.83
2023-05-12T11:55:52.513Z,1.70
2023-05-12T11:58:30.950Z,1.75
2023-05-12T12:01:12.134Z,1.80
2023-05-12T12:03:50.612Z,1.50
2023-05-12T12:06:19.068Z,1.85
2023-05-12T12:09:06.856Z,1.50
2023-05-12T12:11:34.896Z,1.95
2023-05-12T12:14:05.154Z,1.80
2023-05-12T12:16:39.133Z,1.55
2023-05-12T12:19:09.028Z,1.70
2023-05-12T12:21:42.472Z,1.92
2023-05-12T12:24:10.252Z,1.90
2023-05-12T12:26:39.591Z,1.80
2023-05-12T12:29:10.576Z,1.50
2023-05-12T12:31:38.606Z,1.52
2023-05-12T12:34:06.225Z,1.60
2023-05-12T12:36:34.676Z,1.55
2023-05-12T12:39:06.036Z,2.78
2023-05-12T12:44:00.274Z,1.58
2023-05-12T12:46:27.765Z,1.38
2023-05-12T12:49:00.671Z,2.20
2023-05-12T12:51:50.404Z,1.77
2023-05-12T12:54:21.004Z,1.80
2023-05-12T12:56:51.632Z,1.60
2023-05-12T12:59:26.872Z,1.67
2023-05-12T13:01:54.734Z,1.77
2023-05-12T13:04:23.212Z,1.58
2023-05-12T13:06:51.513Z,1.70
2023-05-12T13:09:21.397Z,1.55
2023-05-12T13:11:51.712Z,1.83
2023-05-12T13:14:19.399Z,1.70
2023-05-12T13:16:46.599Z,1.63
2023-05-12T13:19:18.184Z,1.73
2023-05-12T13:21:47.925Z,1.52
2023-05-12T13:24:18.874Z,1.50
2023-05-12T13:26:46.578Z,1.40
2023-05-12T13:29:16.596Z,1.60
2023-05-12T13:31:45.740Z,1.60
2023-05-12T13:34:14.339Z,1.50
2023-05-12T13:36:43.137Z,1.33
2023-05-12T13:39:13.651Z,1.40
2023-05-12T13:41:41.116Z,1.50
2023-05-12T13:44:09.710Z,2.03
2023-05-12T13:46:37.083Z,1.70
2023-05-12T13:49:07.658Z,1.60
2023-05-12T13:51:35.865Z,1.75
2023-05-12T13:54:03.317Z,1.30
2023-05-12T13:56:31.636Z,1.95
2023-05-12T13:58:59.153Z,1.70
2023-05-12T14:01:28.256Z,1.60
2023-05-12T14:03:57.667Z,1.67
2023-05-12T14:06:27.741Z,1.30
2023-05-12T14:08:55.355Z,1.50
2023-05-12T14:11:23.026Z,1.40
2023-05-12T14:13:52.236Z,1.75
2023-05-12T14:16:26.175Z,2.17
2023-05-12T14:18:54.642Z,1.52
2023-05-12T14:21:22.861Z,1.45
2023-05-12T14:23:52.120Z,1.30
2023-05-12T14:26:23.021Z,1.40
2023-05-12T14:28:50.612Z,1.48
2023-05-12T14:31:19.129Z,1.45
2023-05-12T14:33:46.706Z,1.65
2023-05-12T14:36:14.360Z,1.35
2023-05-12T14:38:41.630Z,2.10
2023-05-12T14:41:11.290Z,1.38
2023-05-12T14:43:39.327Z,1.63
2023-05-12T14:46:08.859Z,1.30
2023-05-12T14:48:37.214Z,1.92
2023-05-12T14:51:04.981Z,1.40
2023-05-12T14:53:32.443Z,1.60
2023-05-12T14:55:59.895Z,1.40
2023-05-12T14:58:30.491Z,1.40
2023-05-12T15:01:02.916Z,1.77
2023-05-12T15:03:30.853Z,2.13
2023-05-12T15:08:31.813Z,1.60
2023-05-12T15:10:59.337Z,1.55
2023-05-12T15:13:27.181Z,1.63
2023-05-12T15:15:56.755Z,1.70
2023-05-12T15:18:24.986Z,1.55
2023-05-12T15:20:53.012Z,1.90
2023-05-12T15:23:20.905Z,1.63
2023-05-12T15:25:56.541Z,1.25
2023-05-12T15:28:28.391Z,1.50
2023-05-12T15:31:00.576Z,2.10
2023-05-12T15:33:29.441Z,1.70
2023-05-12T15:35:59.254Z,1.80
2023-05-12T15:38:27.284Z,1.30
2023-05-12T15:40:54.539Z,2.00
2023-05-12T15:43:24.481Z,1.40
2023-05-12T15:45:51.780Z,1.55
2023-05-12T15:48:19.383Z,1.60
2023-05-12T15:50:46.854Z,1.55
2023-05-12T15:53:14.103Z,1.45
2023-05-12T15:55:42.227Z,1.80
2023-05-12T15:58:12.207Z,1.60
2023-05-12T16:00:40.796Z,1.77
2023-05-12T16:03:08.606Z,1.27
2023-05-12T16:05:38.847Z,1.58
2023-05-12T16:08:06.927Z,1.33
2023-05-12T16:10:36.845Z,1.80
2023-05-12T16:13:04.110Z,1.38
2023-05-12T16:15:31.980Z,1.70
2023-05-12T16:17:59.742Z,1.27
2023-05-12T16:20:28.029Z,1.50
2023-05-12T16:22:55.548Z,1.48
2023-05-12T16:25:23.299Z,1.73
2023-05-12T16:27:51.888Z,1.40
2023-05-12T16:30:20.353Z,1.30
2023-05-12T16:32:48.723Z,1.60
2023-05-12T16:35:16.155Z,1.50
2023-05-12T16:37:43.969Z,1.45
2023-05-12T16:40:12.239Z,1.88
2023-05-12T16:42:40.578Z,1.60
2023-05-12T16:45:08.713Z,2.15
2023-05-12T16:47:36.543Z,1.90
2023-05-12T16:50:10.546Z,1.17
2023-05-12T16:52:41.356Z,1.67
2023-05-12T16:55:09.764Z,1.80
2023-05-12T16:57:42.642Z,1.40
2023-05-12T17:00:12.549Z,1.60
2023-05-12T17:02:41.547Z,1.33
2023-05-12T17:05:18.697Z,1.50
2023-05-12T17:07:49.207Z,1.92
2023-05-12T17:10:20.111Z,1.45
2023-05-12T17:12:51.068Z,1.40
2023-05-12T17:15:19.271Z,2.08
2023-05-12T17:17:50.064Z,1.45
2023-05-12T17:20:17.910Z,1.38
2023-05-12T17:22:47.545Z,2.03
2023-05-12T17:25:15.648Z,2.75
2023-05-12T17:27:47.364Z,1.70
2023-05-12T17:30:16.185Z,1.80
2023-05-12T17:32:44.225Z,1.50
2023-05-12T17:35:12.204Z,1.30
2023-05-12T17:37:41.886Z,1.65
2023-05-12T17:40:15.553Z,1.45
2023-05-12T17:42:43.180Z,1.70
2023-05-12T17:45:11.159Z,1.65
2023-05-12T17:47:41.677Z,1.75
2023-05-12T17:50:15.165Z,1.80
2023-05-12T17:52:43.668Z,1.55
2023-05-12T17:55:11.265Z,1.55
2023-05-12T17:57:43.802Z,1.75
2023-05-12T18:00:11.820Z,1.90
2023-05-12T18:02:41.280Z,2.10
2023-05-12T18:05:10.174Z,2.67
2023-05-12T18:07:38.022Z,2.60
2023-05-12T18:10:10.301Z,3.10
2023-05-12T18:12:42.003Z,3.45
2023-05-12T18:17:39.853Z,3.63
2023-05-12T18:20:08.856Z,3.30
2023-05-12T18:22:39.337Z,3.17
2023-05-12T18:25:07.016Z,2.75
2023-05-12T18:27:34.540Z,2.83
2023-05-12T18:30:01.976Z,2.65
2023-05-12T18:32:33.128Z,2.90
2023-05-12T18:35:01.998Z,3.15
2023-05-12T18:37:31.408Z,3.22
2023-05-12T18:40:01.704Z,2.70
2023-05-12T18:42:30.695Z,2.60
2023-05-12T18:44:58.570Z,3.30
2023-05-12T18:47:27.948Z,3.22
2023-05-12T18:49:57.051Z,3.00
2023-05-12T18:52:24.163Z,2.85
2023-05-12T18:54:51.446Z,2.80
2023-05-12T18:57:19.427Z,2.88
2023-05-12T18:59:48.971Z,2.80
2023-05-12T19:02:19.545Z,2.90
2023-05-12T19:04:47.013Z,2.38
2023-05-12T19:07:16.042Z,2.60
2023-05-12T19:09:44.630Z,2.70
2023-05-12T19:12:12.147Z,2.42
2023-05-12T19:14:40.609Z,2.15
2023-05-12T19:17:11.709Z,1.73
2023-05-12T19:19:39.736Z,2.30
2023-05-12T19:22:07.138Z,1.88
2023-05-12T19:24:35.095Z,1.90
2023-05-12T19:27:02.730Z,1.95
2023-05-12T19:29:30.441Z,2.35
2023-05-12T19:32:01.191Z,1.92
2023-05-12T19:34:29.873Z,1.90
2023-05-12T19:37:00.832Z,1.85
2023-05-12T19:39:29.046Z,1.88
2023-05-12T19:41:56.770Z,2.10
2023-05-12T19:44:24.701Z,1.75
2023-05-12T19:46:52.724Z,1.73
2023-05-12T19:49:20.112Z,1.98
2023-05-12T19:51:53.671Z,1.98
2023-05-12T19:54:21.033Z,1.40
2023-05-12T19:56:51.253Z,1.92
2023-05-12T19:59:19.130Z,1.80
2023-05-12T20:01:47.176Z,2.13
2023-05-12T20:04:15.044Z,2.03
2023-05-12T20:09:27.244Z,2.20
2023-05-12T20:11:54.959Z,2.10
2023-05-12T20:14:22.911Z,1.90
2023-05-12T20:16:50.710Z,1.75
2023-05-12T20:19:24.244Z,1.98
2023-05-12T20:21:51.433Z,1.60
2023-05-12T20:24:18.719Z,1.83
2023-05-12T20:26:46.781Z,1.77
2023-05-12T20:29:20.766Z,1.80
2023-05-12T20:31:50.037Z,2.05
2023-05-12T20:34:20.837Z,1.95
2023-05-12T20:36:49.129Z,2.00
2023-05-12T20:39:16.531Z,1.58
2023-05-12T20:41:45.872Z,1.90
2023-05-12T20:44:13.514Z,2.30
2023-05-12T20:46:41.152Z,1.77
2023-05-12T20:49:08.843Z,2.00
2023-05-12T20:51:36.069Z,1.98
2023-05-12T20:54:03.253Z,1.75
2023-05-12T20:56:33.258Z,1.70
2023-05-12T20:59:01.233Z,1.88
2023-05-12T21:01:44.144Z,1.58
2023-05-12T21:04:14.851Z,2.15
2023-05-12T21:06:42.778Z,2.00
2023-05-12T21:09:10.717Z,1.55
2023-05-12T21:11:40.972Z,2.00
2023-05-12T21:14:16.579Z,1.88
2023-05-12T21:16:44.580Z,1.55
2023-05-12T21:19:12.243Z,1.77
2023-05-12T21:21:43.448Z,1.85
2023-05-12T21:24:22.096Z,1.80
2023-05-12T21:26:50.487Z,1.98
2023-05-12T21:29:17.834Z,2.20
2023-05-12T21:31:45.355Z,2.15
2023-05-12T21:34:13.178Z,1.85
2023-05-12T21:36:47.237Z,2.50
2023-05-12T21:39:15.159Z,2.80
2023-05-12T21:41:42.895Z,2.63
2023-05-12T21:44:11.371Z,2.20
2023-05-12T21:46:39.174Z,1.73
2023-05-12T21:49:06.846Z,2.00
2023-05-12T21:51:34.473Z,2.17
2023-05-12T21:54:02.088Z,2.13
2023-05-12T21:56:29.490Z,2.22
2023-05-12T21:58:57.129Z,2.15
2023-05-12T22:01:26.076Z,2.00
2023-05-12T22:03:56.941Z,1.98
2023-05-12T22:06:27.367Z,1.80
2023-05-12T22:08:55.982Z,1.88
2023-05-12T22:11:23.585Z,1.73
2023-05-12T22:13:51.271Z,2.20
2023-05-12T22:16:25.842Z,1.83
2023-05-12T22:18:59.226Z,2.17
2023-05-12T22:21:26.367Z,1.98
2023-05-12T22:23:53.910Z,2.58
2023-05-12T22:26:21.548Z,2.08
2023-05-12T22:28:48.691Z,2.15
2023-05-12T22:31:16.076Z,1.98
2023-05-12T22:33:44.788Z,2.00
2023-05-12T22:36:12.046Z,1.92
2023-05-12T22:38:39.384Z,2.22
2023-05-12T22:41:06.597Z,2.15
2023-05-12T22:43:36.497Z,2.25
2023-05-12T22:46:06.154Z,1.98
2023-05-12T22:48:38.699Z,1.85
2023-05-12T22:51:06.826Z,1.98
2023-05-12T22:53:36.235Z,1.70
2023-05-12T22:56:04.214Z,2.00
2023-05-12T22:58:32.040Z,1.77
2023-05-12T23:01:01.089Z,2.53
2023-05-12T23:03:28.570Z,3.72
2023-05-12T23:05:56.165Z,2.25
2023-05-12T23:08:24.098Z,1.77
2023-05-12T23:10:51.739Z,2.20
2023-05-12T23:13:18.916Z,1.77
2023-05-12T23:15:46.336Z,1.73
2023-05-12T23:18:14.169Z,1.98
2023-05-12T23:20:41.260Z,2.78
2023-05-12T23:23:08.359Z,1.88
2023-05-12T23:25:37.013Z,2.30
2023-05-12T23:28:04.672Z,2.30
2023-05-12T23:30:32.238Z,2.00
2023-05-12T23:33:02.805Z,2.40
2023-05-12T23:35:30.595Z,2.20
2023-05-12T23:37:57.872Z,2.40
2023-05-12T23:40:25.318Z,2.38
2023-05-12T23:42:52.574Z,2.40
2023-05-12T23:45:19.922Z,2.20
2023-05-12T23:47:47.814Z,2.60
2023-05-12T23:50:15.418Z,2.17
2023-05-12T23:52:43.061Z,2.20
2023-05-12T23:55:11.697Z,2.78
2023-05-12T23:57:39.467Z,2.30
